Time;durP1;ratioP1;P1;durP2;ratioP2;P2;SDS_P1;SDS_P2;PMS_P1;PMS_P2;Temp;Humidity;BMP_temperature;BMP_pressure;BME280_temperature;BME280_humidity;BME280_pressure;Samples;Min_cycle;Max_cycle;Signal;HPM_P1;HPM_P2
2022/02/23 00:00:21;;;;;;;;;;;;;;;;;;5049402;28;19916;-72
2022/02/23 00:02:47;;;;;;;;;;;;;;;;;;5050030;28;19947;-72
2022/02/23 00:05:12;;;;;;;;;;;;;;;;;;5049819;28;20408;-71
2022/02/23 00:07:38;;;;;;;;;;;;;;;;;;5048577;28;20283;-72
2022/02/23 00:10:04;;;;;;;;;;;;;;;;;;5048735;28;19932;-71
2022/02/23 00:12:30;;;;;;;;;;;;;;;;;;5048454;28;19987;-72
2022/02/23 00:14:57;;;;;;;;;;;;;;;;;;5049951;28;19921;-72
2022/02/23 00:17:25;;;;;;;;;;;;;;;;;;5050006;28;19924;-72
2022/02/23 00:19:51;;;;;;;;;;;;;;;;;;5049868;28;20319;-71
2022/02/23 00:22:16;;;;;;;;;;;;;;;;;;5065211;28;19925;-71
2022/02/23 00:24:41;;;;;;;;;;;;;;;;;;5048151;28;19975;-72
2022/02/23 00:27:07;;;;;;;;;;;;;;;;;;5048540;28;19921;-73
2022/02/23 00:29:32;;;;;;;;;;;;;;;;;;5049747;28;19924;-72
2022/02/23 00:31:57;;;;;;;;;;;;;;;;;;5049517;28;19951;-72
2022/02/23 00:34:23;;;;;;;;;;;;;;;;;;5048023;28;20399;-71
2022/02/23 00:36:48;;;;;;;;;;;;;;;;;;5049417;28;20292;-72
2022/02/23 00:39:14;;;;;;;;;;;;;;;;;;5055822;28;19978;-71
2022/02/23 00:41:39;;;;;;;;;;;;;;;;;;5069906;28;19917;-71
2022/02/23 00:44:05;;;;;;;;;;;;;;;;;;5051643;28;19927;-72
2022/02/23 00:46:30;;;;;;;;;;;;;;;;;;5069524;28;20376;-70
2022/02/23 00:48:56;;;;;;;;;;;;;;;;;;5034392;28;19924;-72
2022/02/23 00:51:21;;;;;;;;;;;;;;;;;;5069375;28;19916;-72
2022/02/23 00:53:47;;;;;;;;;;;;;;;;;;5068968;28;20237;-72
2022/02/23 00:56:12;;;;;;;;;;;;;;;;;;5069055;28;20435;-72
2022/02/23 00:58:38;;;;;;;;;;;;;;;;;;5051176;28;19924;-72
2022/02/23 01:01:04;;;;;;;;;;;;;;;;;;5069015;28;19924;-71
2022/02/23 01:03:30;;;;;;;;;;;;;;;;;;5069096;28;19994;-71
2022/02/23 01:05:57;;;;;;;;;;;;;;;;;;5069030;28;19931;-72
2022/02/23 01:08:22;;;;;;;;;;;;;;;;;;5069539;28;20390;-72
2022/02/23 01:10:48;;;;;;;;;;;;;;;;;;5050955;28;20167;-72
2022/02/23 01:13:13;;;;;;;;;;;;;;;;;;5069212;28;19981;-73
2022/02/23 01:15:38;;;;;;;;;;;;;;;;;;5050917;28;19924;-72
2022/02/23 01:18:04;;;;;;;;;;;;;;;;;;5062430;28;20004;-72
2022/02/23 01:20:29;;;;;;;;;;;;;;;;;;5051138;28;19952;-72
2022/02/23 01:22:59;;;;;;;;;;;;;;;;;;5068640;28;19916;-70
2022/02/23 01:25:25;;;;;;;;;;;;;;;;;;5050659;28;19960;-70
2022/02/23 01:27:51;;;;;;;;;;;;;;;;;;5050637;28;19962;-71
2022/02/23 01:30:17;;;;;;;;;;;;;;;;;;5069144;28;19920;-69
2022/02/23 01:32:42;;;;;;;;;;;;;;;;;;5068771;28;20489;-72
2022/02/23 01:35:08;;;;;;;;;;;;;;;;;;5068837;28;20010;-71
2022/02/23 01:37:33;;;;;;;;;;;;;;;;;;5069253;28;20249;-71
2022/02/23 01:39:59;;;;;;;;;;;;;;;;;;5068461;28;20074;-71
2022/02/23 01:42:24;;;;;;;;;;;;;;;;;;5068857;28;20379;-71
2022/02/23 01:44:49;;;;;;;;;;;;;;;;;;5068439;28;19916;-72
2022/02/23 01:47:15;;;;;;;;;;;;;;;;;;5068627;28;20413;-68
2022/02/23 01:49:40;;;;;;;;;;;;;;;;;;5069166;28;19916;-69
2022/02/23 01:52:06;;;;;;;;;;;;;;;;;;5050591;28;20032;-70
2022/02/23 01:54:31;;;;;;;;;;;;;;;;;;5068768;28;20399;-69
2022/02/23 01:56:57;;;;;;;;;;;;;;;;;;5069363;28;20364;-72
2022/02/23 01:59:22;;;;;;;;;;;;;;;;;;5069155;28;19917;-71
2022/02/23 02:01:48;;;;;;;;;;;;;;;;;;5052859;28;19993;-71
2022/02/23 02:04:13;;;;;;;;;;;;;;;;;;5072270;28;20356;-71
2022/02/23 02:06:38;;;;;;;;;;;;;;;;;;5054332;28;19920;-70
2022/02/23 02:09:04;;;;;;;;;;;;;;;;;;5072108;28;19920;-72
2022/02/23 02:11:29;;;;;;;;;;;;;;;;;;5072166;28;19916;-70
2022/02/23 02:13:54;;;;;;;;;;;;;;;;;;5071918;28;19920;-72
2022/02/23 02:16:20;;;;;;;;;;;;;;;;;;5072064;28;20332;-69
2022/02/23 02:18:45;;;;;;;;;;;;;;;;;;5072067;28;19924;-71
2022/02/23 02:21:11;;;;;;;;;;;;;;;;;;5072017;28;19920;-70
2022/02/23 02:23:36;;;;;;;;;;;;;;;;;;5072114;28;19931;-69
2022/02/23 02:26:02;;;;;;;;;;;;;;;;;;5053411;28;19977;-71
2022/02/23 02:28:27;;;;;;;;;;;;;;;;;;5071911;28;19969;-70
2022/02/23 02:30:52;;;;;;;;;;;;;;;;;;5071778;28;19916;-70
2022/02/23 02:33:18;;;;;;;;;;;;;;;;;;5072110;28;19939;-72
2022/02/23 02:35:43;;;;;;;;;;;;;;;;;;5053331;28;19947;-70
2022/02/23 02:38:09;;;;;;;;;;;;;;;;;;5053656;28;19957;-71
2022/02/23 02:40:35;;;;;;;;;;;;;;;;;;5071617;28;19924;-69
2022/02/23 02:43:04;;;;;;;;;;;;;;;;;;5053374;28;20355;-70
2022/02/23 02:45:29;;;;;;;;;;;;;;;;;;5071442;28;19978;-70
2022/02/23 02:47:54;;;;;;;;;;;;;;;;;;5071613;28;19924;-71
2022/02/23 02:50:20;;;;;;;;;;;;;;;;;;5071521;28;19930;-71
2022/02/23 02:52:45;;;;;;;;;;;;;;;;;;5071530;28;19923;-71
2022/02/23 02:55:10;;;;;;;;;;;;;;;;;;5071220;28;19916;-70
2022/02/23 02:57:38;;;;;;;;;;;;;;;;;;5071080;28;20430;-71
2022/02/23 03:00:07;;;;;;;;;;;;;;;;;;5052932;28;19920;-71
2022/02/23 03:02:33;;;;;;;;;;;;;;;;;;5071465;28;20641;-71
2022/02/23 03:04:58;;;;;;;;;;;;;;;;;;5071266;28;19963;-70
2022/02/23 03:07:23;;;;;;;;;;;;;;;;;;5071442;28;20299;-69
2022/02/23 03:09:49;;;;;;;;;;;;;;;;;;5071341;28;19956;-71
2022/02/23 03:12:14;;;;;;;;;;;;;;;;;;5070645;28;19924;-72
2022/02/23 03:14:39;;;;;;;;;;;;;;;;;;5070820;28;19920;-71
2022/02/23 03:17:05;;;;;;;;;;;;;;;;;;5055274;28;19916;-71
2022/02/23 03:19:30;;;;;;;;;;;;;;;;;;5053353;28;20281;-69
2022/02/23 03:21:55;;;;;;;;;;;;;;;;;;5070837;28;19920;-71
2022/02/23 03:24:21;;;;;;;;;;;;;;;;;;5070576;28;19920;-71
2022/02/23 03:26:46;;;;;;;;;;;;;;;;;;5052672;28;19972;-70
2022/02/23 03:29:12;;;;;;;;;;;;;;;;;;5052702;28;19959;-71
2022/02/23 03:31:37;;;;;;;;;;;;;;;;;;5070764;28;20383;-71
2022/02/23 03:34:02;;;;;;;;;;;;;;;;;;5070598;28;19943;-71
2022/02/23 03:36:28;;;;;;;;;;;;;;;;;;5052497;28;19916;-70
2022/02/23 03:38:53;;;;;;;;;;;;;;;;;;5070099;28;20367;-71
2022/02/23 03:41:19;;;;;;;;;;;;;;;;;;5070898;28;19917;-70
2022/02/23 03:43:44;;;;;;;;;;;;;;;;;;5070500;28;19985;-69
2022/02/23 03:46:09;;;;;;;;;;;;;;;;;;5069996;28;19924;-71
2022/02/23 03:48:35;;;;;;;;;;;;;;;;;;5070293;28;19928;-70
2022/02/23 03:51:00;;;;;;;;;;;;;;;;;;5052352;28;19920;-72
2022/02/23 03:53:26;;;;;;;;;;;;;;;;;;5070492;28;20137;-69
2022/02/23 03:55:51;;;;;;;;;;;;;;;;;;5051902;28;20349;-71
2022/02/23 03:58:16;;;;;;;;;;;;;;;;;;5070432;28;19930;-70
2022/02/23 04:00:42;;;;;;;;;;;;;;;;;;5070397;28;20354;-70
2022/02/23 04:03:07;;;;;;;;;;;;;;;;;;5070172;28;19920;-70
2022/02/23 04:05:33;;;;;;;;;;;;;;;;;;5069654;28;20146;-71
2022/02/23 04:07:58;;;;;;;;;;;;;;;;;;5069819;28;20020;-70
2022/02/23 04:10:24;;;;;;;;;;;;;;;;;;5070054;28;20376;-72
2022/02/23 04:12:49;;;;;;;;;;;;;;;;;;5070153;28;20376;-69
2022/02/23 04:15:15;;;;;;;;;;;;;;;;;;5069433;28;20145;-70
2022/02/23 04:17:41;;;;;;;;;;;;;;;;;;5070177;28;19938;-71
2022/02/23 04:20:07;;;;;;;;;;;;;;;;;;5069780;28;19920;-70
2022/02/23 04:22:33;;;;;;;;;;;;;;;;;;5070129;28;19923;-70
2022/02/23 04:24:59;;;;;;;;;;;;;;;;;;5051352;28;19920;-69
2022/02/23 04:27:24;;;;;;;;;;;;;;;;;;5070009;28;19927;-70
2022/02/23 04:29:49;;;;;;;;;;;;;;;;;;5052595;28;19916;-70
2022/02/23 04:32:15;;;;;;;;;;;;;;;;;;5070181;28;19966;-72
2022/02/23 04:34:40;;;;;;;;;;;;;;;;;;5052130;28;19974;-72
2022/02/23 04:37:07;;;;;;;;;;;;;;;;;;5052141;28;19916;-72
2022/02/23 04:39:32;;;;;;;;;;;;;;;;;;5069844;28;19924;-72
2022/02/23 04:41:57;;;;;;;;;;;;;;;;;;5069726;28;19916;-72
2022/02/23 04:44:23;;;;;;;;;;;;;;;;;;5069925;28;20488;-72
2022/02/23 04:46:49;;;;;;;;;;;;;;;;;;5069944;28;20345;-73
2022/02/23 04:49:14;;;;;;;;;;;;;;;;;;5069676;28;20326;-74
2022/02/23 04:51:39;;;;;;;;;;;;;;;;;;5051573;28;19916;-72
2022/02/23 04:54:05;;;;;;;;;;;;;;;;;;5069442;28;20006;-73
2022/02/23 04:56:30;;;;;;;;;;;;;;;;;;5069776;28;19972;-72
2022/02/23 04:58:56;;;;;;;;;;;;;;;;;;5069885;28;20380;-71
2022/02/23 05:01:21;;;;;;;;;;;;;;;;;;5051785;28;19966;-70
2022/02/23 05:03:47;;;;;;;;;;;;;;;;;;5069651;28;19943;-72
2022/02/23 05:06:12;;;;;;;;;;;;;;;;;;5051133;28;19969;-72
2022/02/23 05:08:38;;;;;;;;;;;;;;;;;;5069435;28;19946;-73
2022/02/23 05:11:03;;;;;;;;;;;;;;;;;;5069501;28;19928;-73
2022/02/23 05:13:29;;;;;;;;;;;;;;;;;;5069555;28;19916;-72
2022/02/23 05:15:56;;;;;;;;;;;;;;;;;;5068702;28;19939;-72
2022/02/23 05:18:22;;;;;;;;;;;;;;;;;;5051437;28;19924;-72
2022/02/23 05:20:47;;;;;;;;;;;;;;;;;;5069612;28;19916;-72
2022/02/23 05:23:14;;;;;;;;;;;;;;;;;;5051286;28;19920;-72
2022/02/23 05:25:39;;;;;;;;;;;;;;;;;;5051056;28;20006;-75
2022/02/23 05:28:05;;;;;;;;;;;;;;;;;;5034717;28;20377;-73
2022/02/23 05:30:31;;;;;;;;;;;;;;;;;;5069123;28;20318;-73
2022/02/23 05:32:58;;;;;;;;;;;;;;;;;;5051035;28;20010;-72
2022/02/23 05:35:23;;;;;;;;;;;;;;;;;;5069283;28;19916;-73
2022/02/23 05:37:48;;;;;;;;;;;;;;;;;;5073479;28;19969;-73
2022/02/23 05:40:14;;;;;;;;;;;;;;;;;;5054787;28;19932;-73
2022/02/23 05:42:39;;;;;;;;;;;;;;;;;;5072902;28;19921;-72
2022/02/23 05:45:05;;;;;;;;;;;;;;;;;;5072831;28;19938;-72
2022/02/23 05:47:30;;;;;;;;;;;;;;;;;;5073284;28;19916;-74
2022/02/23 05:49:56;;;;;;;;;;;;;;;;;;5055253;28;20000;-73
2022/02/23 05:52:21;;;;;;;;;;;;;;;;;;5055084;28;19946;-73
2022/02/23 05:54:47;;;;;;;;;;;;;;;;;;5072579;28;19916;-73
2022/02/23 05:57:13;;;;;;;;;;;;;;;;;;5055495;28;19923;-72
2022/02/23 05:59:38;;;;;;;;;;;;;;;;;;5072596;28;19921;-73
2022/02/23 06:02:04;;;;;;;;;;;;;;;;;;5054543;28;20324;-72
2022/02/23 06:04:29;;;;;;;;;;;;;;;;;;5054277;28;20318;-72
2022/02/23 06:06:55;;;;;;;;;;;;;;;;;;5055021;28;20017;-72
2022/02/23 06:09:20;;;;;;;;;;;;;;;;;;5054247;28;20061;-74
2022/02/23 06:11:45;;;;;;;;;;;;;;;;;;5054876;28;19924;-73
2022/02/23 06:14:11;;;;;;;;;;;;;;;;;;5072232;28;20284;-73
2022/02/23 06:16:36;;;;;;;;;;;;;;;;;;5054504;28;19970;-73
2022/02/23 06:19:02;;;;;;;;;;;;;;;;;;5071659;28;19924;-72
2022/02/23 06:21:27;;;;;;;;;;;;;;;;;;5071191;28;20363;-74
2022/02/23 06:23:53;;;;;;;;;;;;;;;;;;5054249;28;20273;-73
2022/02/23 06:26:18;;;;;;;;;;;;;;;;;;5072100;28;20339;-73
2022/02/23 06:28:44;;;;;;;;;;;;;;;;;;5054353;28;19927;-73
2022/02/23 06:31:10;;;;;;;;;;;;;;;;;;5054336;28;19938;-71
2022/02/23 06:33:38;;;;;;;;;;;;;;;;;;5072165;28;20348;-73
2022/02/23 06:36:03;;;;;;;;;;;;;;;;;;5071542;28;19991;-72
2022/02/23 06:38:29;;;;;;;;;;;;;;;;;;5053121;28;19942;-72
2022/02/23 06:40:56;;;;;;;;;;;;;;;;;;5071396;28;19946;-73
2022/02/23 06:43:21;;;;;;;;;;;;;;;;;;5053615;28;19916;-72
2022/02/23 06:45:48;;;;;;;;;;;;;;;;;;5070171;28;19920;-72
2022/02/23 06:48:13;;;;;;;;;;;;;;;;;;5069848;28;20437;-73
2022/02/23 06:50:39;;;;;;;;;;;;;;;;;;5071741;28;20050;-73
2022/02/23 06:53:05;;;;;;;;;;;;;;;;;;5053405;28;19947;-72
2022/02/23 06:55:30;;;;;;;;;;;;;;;;;;5071572;28;20313;-73
2022/02/23 06:57:56;;;;;;;;;;;;;;;;;;5053346;28;19916;-72
2022/02/23 07:00:21;;;;;;;;;;;;;;;;;;5071409;28;20376;-73
2022/02/23 07:02:49;;;;;;;;;;;;;;;;;;5052976;28;19920;-72
2022/02/23 07:05:15;;;;;;;;;;;;;;;;;;5063454;28;19952;-72
2022/02/23 07:07:41;;;;;;;;;;;;;;;;;;5067404;28;20372;-72
2022/02/23 07:10:10;;;;;;;;;;;;;;;;;;5053071;28;19921;-72
2022/02/23 07:12:36;;;;;;;;;;;;;;;;;;5052976;28;19931;-73
2022/02/23 07:15:02;;;;;;;;;;;;;;;;;;5052176;28;19917;-73
2022/02/23 07:17:27;;;;;;;;;;;;;;;;;;5054458;28;19985;-72
2022/02/23 07:19:52;;;;;;;;;;;;;;;;;;5069126;28;19982;-73
2022/02/23 07:22:18;;;;;;;;;;;;;;;;;;5071466;28;19926;-72
2022/02/23 07:24:44;;;;;;;;;;;;;;;;;;5070640;28;19917;-73
2022/02/23 07:27:10;;;;;;;;;;;;;;;;;;5067314;28;19928;-73
2022/02/23 07:29:35;;;;;;;;;;;;;;;;;;5050871;28;20003;-73
2022/02/23 07:32:00;;;;;;;;;;;;;;;;;;5069092;28;20016;-72
2022/02/23 07:34:26;;;;;;;;;;;;;;;;;;5070321;28;20228;-73
2022/02/23 07:36:52;;;;;;;;;;;;;;;;;;5069514;28;20372;-72
2022/02/23 07:39:17;;;;;;;;;;;;;;;;;;5069462;28;19935;-73
2022/02/23 07:41:43;;;;;;;;;;;;;;;;;;5070523;28;19916;-73
2022/02/23 07:44:08;;;;;;;;;;;;;;;;;;5051289;28;20392;-73
2022/02/23 07:46:34;;;;;;;;;;;;;;;;;;5068661;28;20387;-74
2022/02/23 07:49:00;;;;;;;;;;;;;;;;;;5069901;28;19924;-74
2022/02/23 07:51:27;;;;;;;;;;;;;;;;;;5047611;28;20253;-72
2022/02/23 07:53:54;;;;;;;;;;;;;;;;;;5069504;28;19916;-74
2022/02/23 07:56:21;;;;;;;;;;;;;;;;;;5058842;28;19932;-73
2022/02/23 07:58:47;;;;;;;;;;;;;;;;;;5061121;28;19931;-72
2022/02/23 08:01:29;;;;;;;;;;;;;;;;;;5061146;28;20253;-73
2022/02/23 08:03:55;;;;;;;;;;;;;;;;;;5044059;28;20294;-73
2022/02/23 08:06:20;;;;;;;;;;;;;;;;;;5039859;28;19924;-72
2022/02/23 08:08:45;;;;;;;;;;;;;;;;;;5062505;28;20265;-73
2022/02/23 08:11:11;;;;;;;;;;;;;;;;;;5037294;28;19931;-72
2022/02/23 08:13:36;;;;;;;;;;;;;;;;;;5046709;28;19920;-73
2022/02/23 08:21:30;;;;;;;;;;;;;;;;;;5062447;28;19948;-72
2022/02/23 08:23:55;;;;;;;;;;;;;;;;;;5063215;28;19924;-73
2022/02/23 08:26:22;;;;;;;;;;;;;;;;;;5051255;28;20627;-73
2022/02/23 08:28:48;;;;;;;;;;;;;;;;;;5053452;28;19921;-75
2022/02/23 08:31:16;;;;;;;;;;;;;;;;;;5053254;28;19925;-72
2022/02/23 08:33:43;;;;;;;;;;;;;;;;;;5055598;28;19921;-73
2022/02/23 08:36:09;;;;;;;;;;;;;;;;;;5049101;28;19920;-72
2022/02/23 08:38:34;;;;;;;;;;;;;;;;;;5047598;28;19934;-72
2022/02/23 08:41:00;;;;;;;;;;;;;;;;;;5062175;28;19931;-73
2022/02/23 08:43:25;;;;;;;;;;;;;;;;;;5056938;28;20270;-72
2022/02/23 08:45:50;;;;;;;;;;;;;;;;;;5059187;28;20059;-71
2022/02/23 08:48:16;;;;;;;;;;;;;;;;;;5052448;28;19920;-73
2022/02/23 08:50:42;;;;;;;;;;;;;;;;;;5041958;28;19970;-73
2022/02/23 08:53:07;;;;;;;;;;;;;;;;;;5059001;28;20031;-72
2022/02/23 08:55:34;;;;;;;;;;;;;;;;;;5049984;28;20363;-72
2022/02/23 08:58:05;;;;;;;;;;;;;;;;;;5042787;28;19920;-73
2022/02/23 09:00:30;;;;;;;;;;;;;;;;;;5051797;28;19939;-71
2022/02/23 09:02:56;;;;;;;;;;;;;;;;;;5066261;28;20393;-72
2022/02/23 09:05:23;;;;;;;;;;;;;;;;;;5066673;28;20353;-72
2022/02/23 09:07:48;;;;;;;;;;;;;;;;;;5039750;28;19921;-72
2022/02/23 09:10:15;;;;;;;;;;;;;;;;;;5041806;28;19930;-73
2022/02/23 09:12:43;;;;;;;;;;;;;;;;;;5057878;28;20252;-73
2022/02/23 09:15:11;;;;;;;;;;;;;;;;;;5044332;28;20011;-72
2022/02/23 09:17:36;;;;;;;;;;;;;;;;;;5052869;28;20336;-72
2022/02/23 09:20:02;;;;;;;;;;;;;;;;;;5057285;28;20012;-73
2022/02/23 09:22:27;;;;;;;;;;;;;;;;;;5039327;28;20316;-73
2022/02/23 09:24:53;;;;;;;;;;;;;;;;;;5037622;28;20023;-72
2022/02/23 09:27:18;;;;;;;;;;;;;;;;;;5063567;28;19925;-73
2022/02/23 09:29:44;;;;;;;;;;;;;;;;;;5054488;28;20015;-72
2022/02/23 09:32:09;;;;;;;;;;;;;;;;;;5061103;28;19917;-71
2022/02/23 09:34:34;;;;;;;;;;;;;;;;;;5045266;28;19920;-72
2022/02/23 09:37:00;;;;;;;;;;;;;;;;;;5046980;28;20398;-73
2022/02/23 09:39:25;;;;;;;;;;;;;;;;;;5057239;28;20327;-73
2022/02/23 09:41:52;;;;;;;;;;;;;;;;;;5057695;28;20058;-71
2022/02/23 09:44:18;;;;;;;;;;;;;;;;;;5057892;28;20037;-72
2022/02/23 09:46:44;;;;;;;;;;;;;;;;;;5065655;28;20513;-72
2022/02/23 09:49:10;;;;;;;;;;;;;;;;;;5061297;28;19931;-72
2022/02/23 09:51:35;;;;;;;;;;;;;;;;;;5056494;28;19979;-74
2022/02/23 09:54:01;;;;;;;;;;;;;;;;;;5056776;28;20813;-72
2022/02/23 09:56:26;;;;;;;;;;;;;;;;;;5054660;28;20665;-72
2022/02/23 09:58:55;;;;;;;;;;;;;;;;;;5059837;28;19917;-74
2022/02/23 10:01:23;;;;;;;;;;;;;;;;;;5055749;28;19928;-71
2022/02/23 10:03:51;;;;;;;;;;;;;;;;;;5055153;28;19924;-72
2022/02/23 10:06:28;;;;;;;;;;;;;;;;;;5035692;28;19935;-72
2022/02/23 10:09:00;;;;;;;;;;;;;;;;;;5043064;28;19924;-72
2022/02/23 10:11:26;;;;;;;;;;;;;;;;;;5063577;28;19928;-73
2022/02/23 10:13:51;;;;;;;;;;;;;;;;;;5058356;28;19921;-73
2022/02/23 10:16:17;;;;;;;;;;;;;;;;;;5057146;28;19925;-73
2022/02/23 10:18:43;;;;;;;;;;;;;;;;;;5037592;28;19940;-72
2022/02/23 10:21:09;;;;;;;;;;;;;;;;;;5049894;28;19932;-72
2022/02/23 10:23:36;;;;;;;;;;;;;;;;;;5056714;28;19977;-72
2022/02/23 10:26:02;;;;;;;;;;;;;;;;;;5045600;28;19924;-73
2022/02/23 10:28:30;;;;;;;;;;;;;;;;;;5040877;28;20221;-74
2022/02/23 10:31:00;;;;;;;;;;;;;;;;;;5060064;28;19916;-73
2022/02/23 10:33:27;;;;;;;;;;;;;;;;;;5045739;28;19920;-72
2022/02/23 10:35:53;;;;;;;;;;;;;;;;;;5056422;28;20450;-72
2022/02/23 10:38:39;;;;;;;;;;;;;;;;;;5043027;28;20023;-73
2022/02/23 10:41:08;;;;;;;;;;;;;;;;;;5057066;28;19936;-73
2022/02/23 10:43:35;;;;;;;;;;;;;;;;;;5045340;28;19973;-72
2022/02/23 10:46:08;;;;;;;;;;;;;;;;;;5061865;28;19928;-72
2022/02/23 10:48:33;;;;;;;;;;;;;;;;;;5042991;28;19943;-73
2022/02/23 10:50:59;;;;;;;;;;;;;;;;;;5046781;28;20412;-72
2022/02/23 10:53:26;;;;;;;;;;;;;;;;;;5045706;28;19925;-72
2022/02/23 10:55:51;;;;;;;;;;;;;;;;;;5046811;28;19925;-72
2022/02/23 10:58:16;;;;;;;;;;;;;;;;;;5046798;28;20005;-72
2022/02/23 11:00:44;;;;;;;;;;;;;;;;;;5059181;28;19921;-72
2022/02/23 11:03:10;;;;;;;;;;;;;;;;;;5054177;28;19924;-73
2022/02/23 11:05:36;;;;;;;;;;;;;;;;;;5035870;28;19924;-72
2022/02/23 11:08:03;;;;;;;;;;;;;;;;;;5043658;28;20072;-73
2022/02/23 11:10:29;;;;;;;;;;;;;;;;;;5044348;28;19920;-73
2022/02/23 11:12:56;;;;;;;;;;;;;;;;;;5060012;28;19920;-73
2022/02/23 11:15:23;;;;;;;;;;;;;;;;;;5059017;28;19971;-72
2022/02/23 11:17:50;;;;;;;;;;;;;;;;;;5061748;28;20024;-72
2022/02/23 11:20:20;;;;;;;;;;;;;;;;;;5051849;28;19917;-74
2022/02/23 11:22:49;;;;;;;;;;;;;;;;;;5060378;28;19924;-73
2022/02/23 11:25:15;;;;;;;;;;;;;;;;;;5047522;28;19987;-72
2022/02/23 11:27:42;;;;;;;;;;;;;;;;;;5042552;28;20516;-71
2022/02/23 11:30:08;;;;;;;;;;;;;;;;;;5042019;28;20333;-72
2022/02/23 11:32:41;;;;;;;;;;;;;;;;;;5045583;28;20000;-72
2022/02/23 11:35:13;;;;;;;;;;;;;;;;;;5060319;28;19917;-72
2022/02/23 11:37:40;;;;;;;;;;;;;;;;;;5058886;28;20362;-74
2022/02/23 11:40:09;;;;;;;;;;;;;;;;;;5059560;28;19924;-73
2022/02/23 11:42:35;;;;;;;;;;;;;;;;;;5055198;28;19932;-72
2022/02/23 11:45:05;;;;;;;;;;;;;;;;;;5031521;28;19925;-73
2022/02/23 11:47:31;;;;;;;;;;;;;;;;;;5043667;28;19924;-72
2022/02/23 11:50:07;;;;;;;;;;;;;;;;;;5051284;28;20158;-72
2022/02/23 11:52:41;;;;;;;;;;;;;;;;;;5058641;28;19921;-73
2022/02/23 11:55:20;;;;;;;;;;;;;;;;;;5055243;28;19926;-73
2022/02/23 11:57:58;;;;;;;;;;;;;;;;;;5061960;28;20027;-72
2022/02/23 12:00:34;;;;;;;;;;;;;;;;;;5046992;28;19924;-71
2022/02/23 12:03:04;;;;;;;;;;;;;;;;;;5047474;28;19920;-72
2022/02/23 12:05:37;;;;;;;;;;;;;;;;;;5054018;28;20707;-73
2022/02/23 12:08:03;;;;;;;;;;;;;;;;;;5043800;28;19963;-73
2022/02/23 12:10:29;;;;;;;;;;;;;;;;;;5058039;28;19975;-72
2022/02/23 12:12:56;;;;;;;;;;;;;;;;;;5060041;28;19978;-74
2022/02/23 12:15:26;;;;;;;;;;;;;;;;;;5053630;28;20282;-73
2022/02/23 12:18:06;;;;;;;;;;;;;;;;;;5056203;28;19986;-73
2022/02/23 12:20:34;;;;;;;;;;;;;;;;;;5058142;28;19920;-72
2022/02/23 12:23:06;;;;;;;;;;;;;;;;;;5056315;28;19921;-74
2022/02/23 12:25:48;;;;;;;;;;;;;;;;;;5054188;28;19935;-73
2022/02/23 12:28:14;;;;;;;;;;;;;;;;;;5057713;28;20106;-73
2022/02/23 12:30:40;;;;;;;;;;;;;;;;;;5046133;28;19931;-72
2022/02/23 12:33:11;;;;;;;;;;;;;;;;;;5049016;28;19974;-73
2022/02/23 12:35:37;;;;;;;;;;;;;;;;;;5055777;28;19925;-74
2022/02/23 12:38:04;;;;;;;;;;;;;;;;;;5061730;28;19920;-73
2022/02/23 12:40:32;;;;;;;;;;;;;;;;;;5058169;28;20268;-73
2022/02/23 12:43:04;;;;;;;;;;;;;;;;;;5031318;28;20401;-71
2022/02/23 12:45:30;;;;;;;;;;;;;;;;;;5042618;28;21268;-73
2022/02/23 12:47:56;;;;;;;;;;;;;;;;;;5059604;28;19986;-73
2022/02/23 12:50:29;;;;;;;;;;;;;;;;;;5059573;28;20366;-72
2022/02/23 12:52:54;;;;;;;;;;;;;;;;;;5057123;28;20022;-71
2022/02/23 12:55:20;;;;;;;;;;;;;;;;;;5058889;28;20022;-73
2022/02/23 12:57:52;;;;;;;;;;;;;;;;;;5057779;28;19924;-75
2022/02/23 13:00:29;;;;;;;;;;;;;;;;;;5049389;28;19928;-73
2022/02/23 13:02:55;;;;;;;;;;;;;;;;;;5054543;28;19928;-73
2022/02/23 13:05:24;;;;;;;;;;;;;;;;;;5044672;28;20026;-72
2022/02/23 13:07:50;;;;;;;;;;;;;;;;;;5043371;28;20403;-73
2022/02/23 13:10:16;;;;;;;;;;;;;;;;;;5054666;28;20007;-72
2022/02/23 13:12:43;;;;;;;;;;;;;;;;;;5028246;28;19932;-74
2022/02/23 13:15:09;;;;;;;;;;;;;;;;;;5044513;28;20011;-73
2022/02/23 13:17:35;;;;;;;;;;;;;;;;;;5048537;28;20639;-75
2022/02/23 13:20:00;;;;;;;;;;;;;;;;;;5050248;28;19916;-72
2022/02/23 13:22:30;;;;;;;;;;;;;;;;;;5058601;28;19929;-73
2022/02/23 13:24:56;;;;;;;;;;;;;;;;;;5058825;28;19920;-73
2022/02/23 13:27:29;;;;;;;;;;;;;;;;;;5056189;28;19956;-74
2022/02/23 13:29:55;;;;;;;;;;;;;;;;;;5031496;28;20428;-73
2022/02/23 13:32:23;;;;;;;;;;;;;;;;;;5041639;28;19929;-74
2022/02/23 13:34:51;;;;;;;;;;;;;;;;;;5058289;28;19924;-74
2022/02/23 13:37:22;;;;;;;;;;;;;;;;;;5055911;28;20584;-72
2022/02/23 13:40:01;;;;;;;;;;;;;;;;;;5058051;28;20015;-73
2022/02/23 13:42:36;;;;;;;;;;;;;;;;;;5055725;28;19920;-73
2022/02/23 13:45:09;;;;;;;;;;;;;;;;;;5054424;28;19920;-73
2022/02/23 13:47:34;;;;;;;;;;;;;;;;;;5052118;28;19925;-72
2022/02/23 13:50:03;;;;;;;;;;;;;;;;;;5054386;28;20303;-74
2022/02/23 13:52:30;;;;;;;;;;;;;;;;;;5052571;28;19970;-72
2022/02/23 13:55:14;;;;;;;;;;;;;;;;;;5045521;28;19924;-74
2022/02/23 13:57:41;;;;;;;;;;;;;;;;;;5058890;28;19920;-74
2022/02/23 14:00:12;;;;;;;;;;;;;;;;;;5063396;28;19928;-73
2022/02/23 14:02:37;;;;;;;;;;;;;;;;;;5058896;28;20448;-72
2022/02/23 14:05:04;;;;;;;;;;;;;;;;;;5070291;28;19961;-74
2022/02/23 14:07:29;;;;;;;;;;;;;;;;;;5068165;28;20281;-71
2022/02/23 14:09:55;;;;;;;;;;;;;;;;;;5058310;28;19925;-74
2022/02/23 14:12:28;;;;;;;;;;;;;;;;;;5064584;28;19952;-74
2022/02/23 14:14:53;;;;;;;;;;;;;;;;;;5070297;28;19920;-72
2022/02/23 14:17:20;;;;;;;;;;;;;;;;;;5064260;28;20404;-73
2022/02/23 14:19:47;;;;;;;;;;;;;;;;;;5066708;28;19965;-73
2022/02/23 14:22:17;;;;;;;;;;;;;;;;;;5045928;28;19966;-73
2022/02/23 14:24:42;;;;;;;;;;;;;;;;;;5066909;28;20259;-73
2022/02/23 14:27:14;;;;;;;;;;;;;;;;;;5062948;28;19932;-73
2022/02/23 14:29:40;;;;;;;;;;;;;;;;;;5044011;28;19920;-73
2022/02/23 14:32:19;;;;;;;;;;;;;;;;;;5043183;28;19920;-73
2022/02/23 14:35:11;;;;;;;;;;;;;;;;;;5041349;28;20412;-73
2022/02/23 14:37:38;;;;;;;;;;;;;;;;;;5062871;28;19952;-72
2022/02/23 14:40:06;;;;;;;;;;;;;;;;;;5068126;28;20391;-76
2022/02/23 14:42:32;;;;;;;;;;;;;;;;;;5058296;28;19920;-73
2022/02/23 14:44:58;;;;;;;;;;;;;;;;;;5063631;28;19920;-74
2022/02/23 14:47:23;;;;;;;;;;;;;;;;;;5045105;28;19970;-75
2022/02/23 14:49:49;;;;;;;;;;;;;;;;;;5067639;28;19924;-73
2022/02/23 14:52:14;;;;;;;;;;;;;;;;;;5044812;28;19917;-74
2022/02/23 14:54:40;;;;;;;;;;;;;;;;;;5045780;28;19924;-73
2022/02/23 14:57:08;;;;;;;;;;;;;;;;;;5065353;28;19943;-73
2022/02/23 14:59:34;;;;;;;;;;;;;;;;;;5064202;28;19916;-73
2022/02/23 15:02:02;;;;;;;;;;;;;;;;;;5062006;28;19920;-74
2022/02/23 15:04:29;;;;;;;;;;;;;;;;;;5065322;28;19954;-72
2022/02/23 15:06:54;;;;;;;;;;;;;;;;;;5044833;28;19931;-73
2022/02/23 15:09:19;;;;;;;;;;;;;;;;;;5059061;28;19920;-75
2022/02/23 15:11:45;;;;;;;;;;;;;;;;;;5055205;28;20364;-74
2022/02/23 15:14:13;;;;;;;;;;;;;;;;;;5044472;28;20514;-73
2022/02/23 15:16:39;;;;;;;;;;;;;;;;;;5059226;28;19932;-72
2022/02/23 15:19:05;;;;;;;;;;;;;;;;;;5061124;28;20392;-73
2022/02/23 15:21:30;;;;;;;;;;;;;;;;;;5055681;28;19921;-72
2022/02/23 15:23:55;;;;;;;;;;;;;;;;;;5059569;28;19920;-73
2022/02/23 15:26:21;;;;;;;;;;;;;;;;;;5036342;28;19927;-72
2022/02/23 15:28:46;;;;;;;;;;;;;;;;;;5055634;28;19932;-73
2022/02/23 15:31:15;;;;;;;;;;;;;;;;;;5066390;28;19962;-73
2022/02/23 15:33:40;;;;;;;;;;;;;;;;;;5068768;28;19920;-72
2022/02/23 15:36:06;;;;;;;;;;;;;;;;;;5031310;28;20324;-73
2022/02/23 15:38:32;;;;;;;;;;;;;;;;;;5060563;28;19917;-74
2022/02/23 15:40:58;;;;;;;;;;;;;;;;;;5053144;28;19924;-74
2022/02/23 15:43:23;;;;;;;;;;;;;;;;;;5059552;28;20209;-73
2022/02/23 15:45:49;;;;;;;;;;;;;;;;;;5062086;28;19929;-73
2022/02/23 15:48:16;;;;;;;;;;;;;;;;;;5041556;28;19997;-72
2022/02/23 15:50:41;;;;;;;;;;;;;;;;;;5063308;28;20011;-72
2022/02/23 15:53:06;;;;;;;;;;;;;;;;;;5049564;28;20015;-73
2022/02/23 15:55:36;;;;;;;;;;;;;;;;;;5066988;28;19972;-73
2022/02/23 15:58:01;;;;;;;;;;;;;;;;;;5066279;28;19960;-73
2022/02/23 16:00:27;;;;;;;;;;;;;;;;;;5027706;28;19932;-73
2022/02/23 16:02:53;;;;;;;;;;;;;;;;;;5047310;28;19921;-74
2022/02/23 16:05:19;;;;;;;;;;;;;;;;;;5065211;28;19921;-72
2022/02/23 16:07:46;;;;;;;;;;;;;;;;;;5064749;28;19917;-73
2022/02/23 16:10:12;;;;;;;;;;;;;;;;;;5064716;28;19921;-73
2022/02/23 16:12:37;;;;;;;;;;;;;;;;;;5065762;28;20292;-73
2022/02/23 16:15:03;;;;;;;;;;;;;;;;;;5068999;28;20364;-73
2022/02/23 16:17:30;;;;;;;;;;;;;;;;;;5065094;28;19920;-74
2022/02/23 16:19:57;;;;;;;;;;;;;;;;;;5068778;28;19922;-73
2022/02/23 16:22:24;;;;;;;;;;;;;;;;;;5067343;28;20011;-76
2022/02/23 16:24:50;;;;;;;;;;;;;;;;;;5051224;28;20043;-76
2022/02/23 16:27:16;;;;;;;;;;;;;;;;;;5049661;28;19932;-75
2022/02/23 16:29:42;;;;;;;;;;;;;;;;;;5068046;28;19939;-75
2022/02/23 16:32:08;;;;;;;;;;;;;;;;;;5068245;28;20549;-77
2022/02/23 16:34:33;;;;;;;;;;;;;;;;;;5069072;28;20262;-76
2022/02/23 16:36:58;;;;;;;;;;;;;;;;;;5069569;28;19920;-76
2022/02/23 16:39:24;;;;;;;;;;;;;;;;;;5052947;28;20360;-75
2022/02/23 16:41:50;;;;;;;;;;;;;;;;;;5050309;28;19964;-75
2022/02/23 16:44:15;;;;;;;;;;;;;;;;;;5069302;28;19920;-75
2022/02/23 16:46:43;;;;;;;;;;;;;;;;;;5069574;28;20089;-74